Terminal Aerodrome Forecast
Issued by NWS

Home | Current Version | Previous Version | Text Only | Print | Product List | Glossary On
Versions: 1 2 3 4 5 6 7 8 9 10 11 12 13 14
000
FTUS46 KSEW 250500
TAFOLM
TAF
KOLM 250520Z 2506/2606 20005KT P6SM SCT025 BKN050
      TEMPO 2506/2510 -SHRA BKN025 OVC045
     FM252100 24005KT P6SM VCSH BKN050=

USA.gov is the U.S. government's official web portal to all federal, state and local government web resources and services.